Time;durP1;ratioP1;P1;durP2;ratioP2;P2;SDS_P1;SDS_P2;PMS_P1;PMS_P2;Temp;Humidity;BMP_temperature;BMP_pressure;BME280_temperature;BME280_humidity;BME280_pressure;Samples;Min_cycle;Max_cycle;Signal;HPM_P1;HPM_P2
2022/07/28 00:01:49;;;;;;;9.50;4.47;;;;;;;24.60;nan;-24499.25;5080387;28;20527;-64
2022/07/28 00:04:15;;;;;;;7.47;4.30;;;;;;;24.72;nan;-24502.56;5081067;28;20174;-63
2022/07/28 00:06:40;;;;;;;6.63;4.18;;;;;;;24.38;nan;-24493.31;5082864;28;20291;-63
2022/07/28 00:09:06;;;;;;;7.18;4.13;;;;;;;24.70;nan;-24502.00;5079542;28;20575;-63
2022/07/28 00:11:31;;;;;;;8.25;4.43;;;;;;;24.58;nan;-24498.84;5081760;28;20595;-63
2022/07/28 00:13:56;;;;;;;8.43;4.38;;;;;;;24.19;nan;-24488.09;5074444;28;20676;-64
2022/07/28 00:16:22;;;;;;;9.02;4.63;;;;;;;24.32;nan;-24491.53;5075675;28;20661;-63
2022/07/28 00:18:47;;;;;;;8.32;4.78;;;;;;;23.86;nan;-24479.13;5082739;28;20213;-63
2022/07/28 00:21:13;;;;;;;6.55;4.18;;;;;;;24.10;nan;-24485.59;5080166;28;20298;-63
2022/07/28 00:23:38;;;;;;;7.57;4.10;;;;;;;24.00;nan;-24482.84;5080074;28;20177;-63
2022/07/28 00:26:04;;;;;;;8.18;4.07;;;;;;;23.79;nan;-24477.19;5078987;28;20177;-63
2022/07/28 00:28:29;;;;;;;7.72;4.15;;;;;;;24.06;nan;-24484.50;5083052;28;20181;-63
2022/07/28 00:30:55;;;;;;;7.90;4.78;;;;;;;24.17;nan;-24487.53;5078752;28;20231;-64
2022/07/28 00:33:21;;;;;;;7.13;4.57;;;;;;;24.22;nan;-24488.91;5080900;28;20174;-63
2022/07/28 00:35:46;;;;;;;6.32;3.53;;;;;;;23.95;nan;-24481.47;5074268;28;20684;-63
2022/07/28 00:38:11;;;;;;;6.75;4.00;;;;;;;24.03;nan;-24483.81;5075971;28;20194;-63
2022/07/28 00:43:21;;;;;;;6.53;4.13;;;;;;;24.36;nan;-24492.78;5083504;28;20173;-63
2022/07/28 00:45:46;;;;;;;7.32;4.20;;;;;;;24.13;nan;-24486.44;5075836;28;20182;-63
2022/07/28 00:48:12;;;;;;;10.32;4.25;;;;;;;24.12;nan;-24486.16;5082414;28;20177;-63
2022/07/28 00:50:38;;;;;;;7.93;4.13;;;;;;;23.96;nan;-24481.88;5080042;28;20204;-63
2022/07/28 00:53:04;;;;;;;6.15;3.83;;;;;;;23.97;nan;-24482.00;5078620;28;20546;-63
2022/07/28 00:55:30;;;;;;;5.30;3.88;;;;;;;24.34;nan;-24492.09;5078345;28;20173;-63
2022/07/28 00:57:56;;;;;;;6.18;3.60;;;;;;;24.42;nan;-24494.44;5080797;28;20212;-63
2022/07/28 01:00:21;;;;;;;5.70;4.00;;;;;;;24.32;nan;-24491.53;5083412;28;20174;-63
2022/07/28 01:02:47;;;;;;;5.78;3.70;;;;;;;24.34;nan;-24492.22;5078758;28;20182;-63
2022/07/28 01:05:14;;;;;;;6.72;3.55;;;;;;;24.10;nan;-24485.59;5079410;28;20184;-63
2022/07/28 01:07:53;;;;;;;6.82;4.10;;;;;;;24.35;nan;-24492.50;5079135;28;20217;-63
2022/07/28 01:10:33;;;;;;;4.38;3.17;;;;;;;24.24;nan;-24489.31;5070787;28;20280;-63
2022/07/28 01:13:20;;;;;;;4.28;3.00;;;;;;;24.14;nan;-24486.69;5070605;28;20561;-63
2022/07/28 01:15:55;;;;;;;5.57;3.80;;;;;;;24.00;nan;-24482.97;5084554;28;20260;-62
2022/07/28 01:18:24;;;;;;;5.63;3.42;;;;;;;;;;5080684;28;20189;-63
2022/07/28 01:20:54;;;;;;;5.47;3.30;;;;;;;23.75;nan;-24476.22;5075115;28;20186;-63
2022/07/28 01:23:36;;;;;;;6.50;3.47;;;;;;;24.00;nan;-24482.97;5080221;28;20208;-63
2022/07/28 01:26:14;;;;;;;6.50;4.00;;;;;;;23.99;nan;-24482.56;5074374;28;20243;-65
2022/07/28 01:29:17;;;;;;;6.85;3.95;;;;;;;24.13;nan;-24486.56;5078480;28;20184;-62
2022/07/28 01:31:50;;;;;;;5.68;3.20;;;;;;;24.08;nan;-24485.06;5081369;28;20188;-62
2022/07/28 01:34:26;;;;;;;5.75;3.63;;;;;;;24.01;nan;-24483.25;5082421;28;20177;-63
2022/07/28 01:36:57;;;;;;;7.00;4.03;;;;;;;24.06;nan;-24484.63;5074287;28;20264;-63
2022/07/28 01:39:27;;;;;;;7.45;4.00;;;;;;;23.99;nan;-24482.56;5078921;28;20227;-63
2022/07/28 01:41:54;;;;;;;8.25;4.25;;;;;;;21.66;nan;-24418.97;5077321;28;20185;-62
2022/07/28 01:44:23;;;;;;;6.90;3.55;;;;;;;23.67;nan;-24473.88;5079850;28;20624;-63
2022/07/28 01:46:50;;;;;;;6.65;3.75;;;;;;;23.64;nan;-24473.03;5074900;28;20189;-62
2022/07/28 01:49:18;;;;;;;7.05;4.07;;;;;;;23.49;nan;-24469.03;5076090;28;20185;-63
2022/07/28 01:51:46;;;;;;;5.72;3.83;;;;;;;23.72;nan;-24475.25;5081261;28;20266;-62
2022/07/28 01:54:13;;;;;;;6.43;3.78;;;;;;;23.85;nan;-24478.69;5078341;28;20217;-64
2022/07/28 01:56:40;;;;;;;5.93;3.92;;;;;;;23.44;nan;-24467.53;5077946;28;20177;-62
2022/07/28 01:59:08;;;;;;;5.45;3.42;;;;;;;23.73;nan;-24475.66;5076803;28;20265;-62
2022/07/28 02:01:36;;;;;;;6.00;3.78;;;;;;;23.60;nan;-24472.06;5078826;28;20247;-62
2022/07/28 02:04:04;;;;;;;7.68;4.07;;;;;;;23.16;nan;-24459.94;5077199;28;20185;-62
2022/07/28 02:06:32;;;;;;;6.32;3.70;;;;;;;23.72;nan;-24475.25;5078623;28;20278;-62
2022/07/28 02:09:01;;;;;;;6.28;3.60;;;;;;;23.70;nan;-24474.69;5074542;28;20181;-63
2022/07/28 02:11:41;;;;;;;7.40;4.35;;;;;;;23.46;nan;-24468.22;5080949;28;20192;-62
2022/07/28 02:14:19;;;;;;;6.55;3.60;;;;;;;23.71;nan;-24474.97;5077402;28;20173;-62
2022/07/28 02:16:48;;;;;;;7.18;3.40;;;;;;;23.42;nan;-24466.97;5075077;28;20629;-63
2022/07/28 02:19:16;;;;;;;5.25;3.30;;;;;;;23.35;nan;-24465.19;5076410;28;20238;-63
2022/07/28 02:21:43;;;;;;;5.00;3.50;;;;;;;23.49;nan;-24469.03;5076981;28;20166;-62
2022/07/28 02:24:11;;;;;;;6.30;3.92;;;;;;;23.61;nan;-24472.34;5077500;28;20193;-62
2022/07/28 02:26:43;;;;;;;7.10;4.15;;;;;;;23.38;nan;-24465.88;5078108;28;20500;-62
2022/07/28 02:29:12;;;;;;;7.57;4.28;;;;;;;23.47;nan;-24468.50;5077450;28;20285;-62
2022/07/28 02:31:49;;;;;;;8.50;4.15;;;;;;;23.74;nan;-24475.94;5077370;28;20543;-63
2022/07/28 02:34:15;;;;;;;7.40;3.85;;;;;;;23.62;nan;-24472.63;5076838;28;20178;-63
2022/07/28 02:36:48;;;;;;;6.20;3.92;;;;;;;23.73;nan;-24475.53;5079057;28;20193;-62
2022/07/28 02:39:20;;;;;;;8.20;3.97;;;;;;;23.70;nan;-24474.69;5077932;28;20583;-62
2022/07/28 02:41:53;;;;;;;7.18;4.07;;;;;;;23.32;nan;-24464.47;5072462;28;20647;-62
2022/07/28 02:44:23;;;;;;;5.97;4.13;;;;;;;23.46;nan;-24468.22;5078527;28;20590;-63
2022/07/28 02:46:52;;;;;;;6.60;3.75;;;;;;;23.28;nan;-24463.25;5078103;28;20219;-62
2022/07/28 02:49:27;;;;;;;8.50;4.40;;;;;;;23.37;nan;-24465.59;5078196;28;20364;-62
2022/07/28 02:51:55;;;;;;;6.18;3.75;;;;;;;23.22;nan;-24461.72;5070451;28;20671;-62
2022/07/28 02:54:22;;;;;;;6.90;4.28;;;;;;;23.20;nan;-24461.03;5078347;28;20178;-63
2022/07/28 02:56:50;;;;;;;6.90;4.15;;;;;;;23.15;nan;-24459.66;5073410;28;20181;-63
2022/07/28 02:59:18;;;;;;;10.07;4.43;;;;;;;23.10;nan;-24458.25;5072542;28;20172;-63
2022/07/28 03:01:44;;;;;;;9.75;4.15;;;;;;;23.06;nan;-24457.31;5074522;28;20177;-63
2022/07/28 03:04:11;;;;;;;7.75;4.80;;;;;;;22.91;nan;-24453.16;5074402;28;20181;-63
2022/07/28 03:06:37;;;;;;;8.25;4.13;;;;;;;22.98;nan;-24455.09;5089351;28;20229;-63
2022/07/28 03:09:02;;;;;;;9.77;4.88;;;;;;;22.97;nan;-24454.81;5073002;28;20173;-64
2022/07/28 03:11:28;;;;;;;8.48;4.75;;;;;;;22.69;nan;-24447.19;5074374;28;20691;-64
2022/07/28 03:13:54;;;;;;;6.90;4.40;;;;;;;22.69;nan;-24447.19;5075795;28;20181;-64
2022/07/28 03:16:19;;;;;;;8.07;4.55;;;;;;;23.04;nan;-24456.59;5073988;28;20258;-63
2022/07/28 03:18:45;;;;;;;8.15;4.60;;;;;;;23.10;nan;-24458.41;5074467;28;20189;-63
2022/07/28 03:21:10;;;;;;;8.38;4.75;;;;;;;23.11;nan;-24458.69;5073428;28;20185;-62
2022/07/28 03:23:40;;;;;;;7.40;4.65;;;;;;;23.16;nan;-24459.94;5074776;28;20173;-63
2022/07/28 03:26:14;;;;;;;7.05;4.18;;;;;;;23.24;nan;-24462.13;5073100;28;20224;-63
2022/07/28 03:28:41;;;;;;;6.65;4.47;;;;;;;23.58;nan;-24471.53;5075674;28;20265;-63
2022/07/28 03:31:10;;;;;;;6.72;3.90;;;;;;;23.96;nan;-24481.88;5073526;28;20174;-64
2022/07/28 03:33:35;;;;;;;8.27;4.55;;;;;;;24.39;nan;-24493.47;5073828;28;20189;-63
2022/07/28 03:36:07;;;;;;;9.30;4.55;;;;;;;24.34;nan;-24492.09;5075582;28;20545;-63
2022/07/28 03:38:38;;;;;;;6.97;4.35;;;;;;;24.99;nan;-24509.84;5074272;28;20197;-63
2022/07/28 03:41:06;;;;;;;7.20;4.90;;;;;;;25.13;nan;-24513.72;5074584;28;20588;-63
2022/07/28 03:43:33;;;;;;;7.85;4.57;;;;;;;25.61;nan;-24526.66;5072290;28;20656;-63
2022/07/28 03:45:58;;;;;;;8.63;4.80;;;;;;;26.22;nan;-24543.41;5075123;28;20180;-63
2022/07/28 03:48:31;;;;;;;9.85;4.78;;;;;;;26.65;nan;-24555.09;5074427;28;20178;-63
2022/07/28 03:50:57;;;;;;;8.55;4.30;;;;;;;27.18;nan;-24569.38;5074207;28;20526;-63
2022/07/28 03:53:25;;;;;;;7.80;4.70;;;;;;;27.44;nan;-24576.50;5072352;28;20809;-63
2022/07/28 03:55:52;;;;;;;9.65;4.68;;;;;;;27.99;nan;-24591.44;5077110;28;20170;-63
2022/07/28 03:58:22;;;;;;;7.53;4.70;;;;;;;28.73;nan;-24611.28;5080406;28;20347;-63
2022/07/28 04:00:48;;;;;;;10.07;4.38;;;;;;;29.06;nan;-24620.28;5072284;28;20380;-63
2022/07/28 04:03:14;;;;;;;7.55;5.03;;;;;;;29.10;nan;-24621.38;5075734;28;20265;-63
2022/07/28 04:05:40;;;;;;;6.85;4.90;;;;;;;29.50;nan;-24632.19;5075692;28;20177;-63
2022/07/28 04:08:05;;;;;;;6.85;4.35;;;;;;;28.51;nan;-24605.38;5075183;28;20224;-63
2022/07/28 04:10:31;;;;;;;8.10;4.85;;;;;;;28.13;nan;-24595.00;5077625;28;20265;-63
2022/07/28 04:12:58;;;;;;;8.85;4.90;;;;;;;30.97;nan;-24671.69;5075390;28;20232;-63
2022/07/28 04:15:25;;;;;;;7.65;4.70;;;;;;;31.37;nan;-24682.59;5076729;28;20174;-63
2022/07/28 04:17:52;;;;;;;7.68;4.40;;;;;;;31.49;nan;-24685.84;5073954;28;20617;-64
2022/07/28 04:20:20;;;;;;;7.95;4.65;;;;;;;30.75;nan;-24665.72;5079460;28;20170;-64
2022/07/28 04:22:46;;;;;;;8.38;4.88;;;;;;;29.04;nan;-24619.59;5078944;28;20209;-63
2022/07/28 04:25:15;;;;;;;8.18;5.50;;;;;;;29.04;nan;-24619.59;5079881;28;20177;-63
2022/07/28 04:27:42;;;;;;;7.13;4.85;;;;;;;28.02;nan;-24592.13;5079254;28;20556;-64
2022/07/28 04:30:15;;;;;;;8.73;4.95;;;;;;;28.99;nan;-24618.38;5077331;28;20651;-63
2022/07/28 04:32:42;;;;;;;8.68;5.60;;;;;;;29.03;nan;-24619.34;5083129;28;20247;-63
2022/07/28 04:35:09;;;;;;;10.70;5.32;;;;;;;29.66;nan;-24636.41;5081630;28;20767;-63
2022/07/28 04:37:35;;;;;;;8.32;5.03;;;;;;;29.28;nan;-24626.28;5070259;28;20224;-63
2022/07/28 04:40:01;;;;;;;8.75;5.00;;;;;;;28.78;nan;-24612.78;5078730;28;20220;-63
2022/07/28 04:42:27;;;;;;;7.90;5.60;;;;;;;28.11;nan;-24594.72;5080831;28;20185;-63
2022/07/28 04:44:52;;;;;;;8.05;5.07;;;;;;;28.54;nan;-24606.22;5078138;28;20178;-63
2022/07/28 04:47:18;;;;;;;9.50;5.70;;;;;;;28.90;nan;-24616.06;5078713;28;20177;-63
2022/07/28 04:49:44;;;;;;;8.85;5.47;;;;;;;29.08;nan;-24620.69;5078559;28;20178;-63
2022/07/28 04:52:09;;;;;;;10.90;5.18;;;;;;;29.55;nan;-24633.41;5081408;28;20247;-63
2022/07/28 04:54:37;;;;;;;9.38;5.53;;;;;;;29.96;nan;-24644.59;5080089;28;20169;-63
2022/07/28 04:57:03;;;;;;;8.63;5.50;;;;;;;30.01;nan;-24645.81;5078545;28;20283;-63
2022/07/28 04:59:29;;;;;;;9.98;5.22;;;;;;;30.26;nan;-24652.63;5080500;28;20179;-64
2022/07/28 05:01:58;;;;;;;8.18;5.05;;;;;;;30.31;nan;-24654.00;5074044;28;20173;-63
2022/07/28 05:04:23;;;;;;;9.00;5.20;;;;;;;30.60;nan;-24661.75;5075529;28;20169;-62
2022/07/28 05:06:48;;;;;;;9.57;5.10;;;;;;;29.82;nan;-24640.91;5077233;28;20271;-65
2022/07/28 05:09:14;;;;;;;9.60;5.47;;;;;;;31.52;nan;-24686.66;5074829;28;20173;-63
2022/07/28 05:11:39;;;;;;;8.27;4.90;;;;;;;31.62;nan;-24689.25;5079340;28;20539;-64
2022/07/28 05:14:05;;;;;;;8.32;5.22;;;;;;;31.45;nan;-24684.75;5074041;28;20169;-62
2022/07/28 05:16:31;;;;;;;8.65;5.75;;;;;;;31.79;nan;-24693.75;5078516;28;20190;-63
2022/07/28 05:18:56;;;;;;;9.55;5.28;;;;;;;31.71;nan;-24691.56;5078038;28;20212;-64
2022/07/28 05:21:22;;;;;;;7.85;5.13;;;;;;;32.11;nan;-24702.44;5079024;28;20569;-65
2022/07/28 05:23:47;;;;;;;8.35;5.40;;;;;;;32.19;nan;-24704.59;5075170;28;20185;-65
2022/07/28 05:26:13;;;;;;;9.07;5.28;;;;;;;31.67;nan;-24690.47;5077879;28;20204;-64
2022/07/28 05:28:39;;;;;;;8.70;5.10;;;;;;;31.39;nan;-24683.13;5074937;28;20193;-62
2022/07/28 05:31:06;;;;;;;10.50;5.03;;;;;;;30.23;nan;-24651.81;5082215;28;20345;-63
2022/07/28 05:33:32;;;;;;;9.45;5.22;;;;;;;29.40;nan;-24629.59;5078438;28;20196;-62
2022/07/28 05:35:58;;;;;;;7.47;4.63;;;;;;;29.72;nan;-24638.19;5072746;28;20169;-64
2022/07/28 05:38:24;;;;;;;7.10;4.28;;;;;;;29.22;nan;-24624.53;5072585;28;20204;-64
2022/07/28 05:40:50;;;;;;;7.95;4.88;;;;;;;29.11;nan;-24621.66;5072830;28;20166;-63
2022/07/28 05:43:16;;;;;;;8.00;4.78;;;;;;;29.22;nan;-24624.53;5071332;28;20637;-62
2022/07/28 05:45:41;;;;;;;7.60;4.68;;;;;;;28.82;nan;-24613.88;5072894;28;20167;-63
2022/07/28 05:48:07;;;;;;;6.15;4.35;;;;;;;28.86;nan;-24614.97;5072437;28;20166;-64
2022/07/28 05:50:32;;;;;;;7.70;4.85;;;;;;;;;;5072538;28;20162;-63
2022/07/28 05:52:58;;;;;;;6.70;4.35;;;;;;;28.96;nan;-24617.56;5072406;28;20664;-64
2022/07/28 05:55:24;;;;;;;7.20;4.57;;;;;;;28.74;nan;-24611.69;5072578;28;20523;-64
2022/07/28 05:57:49;;;;;;;8.70;4.88;;;;;;;29.35;nan;-24628.22;5072380;28;20555;-64
2022/07/28 06:00:21;;;;;;;6.95;4.47;;;;;;;29.42;nan;-24630.13;5072508;28;20570;-63
2022/07/28 06:02:48;;;;;;;7.75;4.70;;;;;;;29.71;nan;-24637.75;5072137;28;20180;-62
2022/07/28 06:05:16;;;;;;;6.30;4.28;;;;;;;29.61;nan;-24635.03;5071892;28;20188;-64
2022/07/28 06:07:42;;;;;;;7.13;4.70;;;;;;;29.60;nan;-24634.91;5072281;28;20774;-64
2022/07/28 06:10:08;;;;;;;7.03;4.60;;;;;;;29.67;nan;-24636.69;5072273;28;20258;-65
2022/07/28 06:12:49;;;;;;;7.65;4.90;;;;;;;29.90;nan;-24642.97;5071860;28;20163;-64
2022/07/28 06:15:17;;;;;;;6.60;4.53;;;;;;;29.72;nan;-24638.19;5071654;28;20170;-66
2022/07/28 06:17:43;;;;;;;8.75;4.85;;;;;;;29.94;nan;-24644.03;5071704;28;20274;-65
2022/07/28 06:20:10;;;;;;;6.63;4.60;;;;;;;29.68;nan;-24637.09;5069323;28;20177;-63
2022/07/28 06:22:53;;;;;;;7.18;4.95;;;;;;;30.03;nan;-24646.38;5072057;28;20204;-63
2022/07/28 06:25:26;;;;;;;6.97;4.22;;;;;;;30.03;nan;-24646.38;5072343;28;20658;-64
2022/07/28 06:27:54;;;;;;;7.18;4.50;;;;;;;30.08;nan;-24647.72;5072206;28;20252;-65
2022/07/28 06:30:20;;;;;;;6.82;4.60;;;;;;;30.56;nan;-24660.69;5072247;28;20162;-63
2022/07/28 06:32:46;;;;;;;7.82;4.97;;;;;;;30.32;nan;-24654.28;5072448;28;20165;-65
2022/07/28 06:35:15;;;;;;;8.77;5.07;;;;;;;30.73;nan;-24665.16;5072442;28;20164;-64
2022/07/28 06:37:41;;;;;;;8.88;5.00;;;;;;;30.65;nan;-24663.25;5072040;28;20235;-63
2022/07/28 06:40:08;;;;;;;8.57;4.93;;;;;;;23.93;nan;-24480.91;5072338;28;20180;-65
2022/07/28 06:42:33;;;;;;;8.27;5.00;;;;;;;30.60;nan;-24661.91;5072685;28;20164;-66
2022/07/28 06:44:59;;;;;;;7.72;4.90;;;;;;;30.48;nan;-24658.50;5071451;28;20253;-63
2022/07/28 06:47:24;;;;;;;8.02;4.82;;;;;;;30.68;nan;-24663.94;5072394;28;20175;-65
2022/07/28 06:49:50;;;;;;;8.27;5.13;;;;;;;30.77;nan;-24666.41;5072395;28;20509;-64
2022/07/28 06:52:19;;;;;;;7.30;4.88;;;;;;;30.93;nan;-24670.63;5072197;28;20165;-63
2022/07/28 06:54:51;;;;;;;8.80;5.13;;;;;;;31.52;nan;-24686.66;5071520;28;20616;-63
2022/07/28 06:57:19;;;;;;;7.20;4.88;;;;;;;30.97;nan;-24671.69;5071935;28;20254;-62
2022/07/28 06:59:45;;;;;;;7.03;4.63;;;;;;;30.99;nan;-24672.25;5071675;28;20157;-62
2022/07/28 07:02:11;;;;;;;8.60;5.47;;;;;;;30.78;nan;-24666.53;5072122;28;20169;-62
2022/07/28 07:04:37;;;;;;;7.47;5.18;;;;;;;30.77;nan;-24666.41;5071838;28;20166;-62
2022/07/28 07:07:02;;;;;;;8.80;4.93;;;;;;;30.93;nan;-24670.75;5071644;28;20704;-63
2022/07/28 07:09:28;;;;;;;7.47;4.68;;;;;;;30.63;nan;-24662.72;5071973;28;20732;-62
2022/07/28 07:11:53;;;;;;;9.63;5.35;;;;;;;31.14;nan;-24676.34;5071341;28;20197;-61
2022/07/28 07:14:19;;;;;;;9.85;5.25;;;;;;;31.25;nan;-24679.19;5071887;28;20162;-64
2022/07/28 07:16:44;;;;;;;7.90;5.10;;;;;;;31.53;nan;-24686.81;5071554;28;20153;-65
2022/07/28 07:19:10;;;;;;;7.78;5.28;;;;;;;31.92;nan;-24697.28;5071509;28;20192;-65
2022/07/28 07:21:35;;;;;;;7.72;4.88;;;;;;;31.67;nan;-24690.47;5071490;28;20169;-62
2022/07/28 07:24:01;;;;;;;7.47;4.88;;;;;;;31.75;nan;-24692.66;5072304;28;20197;-63
2022/07/28 07:26:26;;;;;;;9.43;5.70;;;;;;;31.30;nan;-24680.56;5071676;28;20565;-63
2022/07/28 07:28:52;;;;;;;7.53;5.13;;;;;;;31.56;nan;-24687.63;5072078;28;20253;-65
2022/07/28 07:31:17;;;;;;;8.25;5.03;;;;;;;31.53;nan;-24686.81;5071523;28;20164;-65
2022/07/28 07:33:43;;;;;;;7.78;4.93;;;;;;;31.53;nan;-24686.94;5071111;28;20172;-64
2022/07/28 07:36:08;;;;;;;9.05;5.05;;;;;;;31.34;nan;-24681.78;5074172;28;20689;-65
2022/07/28 07:38:34;;;;;;;7.65;5.30;;;;;;;31.08;nan;-24674.69;5073134;28;20240;-65
2022/07/28 07:40:59;;;;;;;7.55;4.75;;;;;;;30.99;nan;-24672.38;5071630;28;20529;-64
2022/07/28 07:43:25;;;;;;;9.32;5.47;;;;;;;30.87;nan;-24668.97;5071409;28;20213;-65
2022/07/28 07:45:51;;;;;;;8.48;5.43;;;;;;;30.80;nan;-24667.22;5071521;28;20165;-65
2022/07/28 07:48:16;;;;;;;13.52;5.85;;;;;;;30.39;nan;-24656.03;5071330;28;20172;-64
2022/07/28 07:50:43;;;;;;;10.35;5.13;;;;;;;26.60;nan;-24553.72;5071509;28;20173;-63
2022/07/28 07:53:08;;;;;;;9.60;5.13;;;;;;;30.45;nan;-24657.81;5071751;28;20576;-66
2022/07/28 07:55:34;;;;;;;8.07;5.05;;;;;;;30.53;nan;-24660.00;5071618;28;20170;-63
2022/07/28 07:57:59;;;;;;;7.10;5.10;;;;;;;30.81;nan;-24667.34;5075014;28;20683;-64
2022/07/28 08:00:24;;;;;;;8.48;4.80;;;;;;;31.06;nan;-24674.28;5074989;28;20170;-63
2022/07/28 08:02:50;;;;;;;10.40;5.28;;;;;;;31.22;nan;-24678.38;5073981;28;20509;-64
2022/07/28 08:05:16;;;;;;;8.13;5.18;;;;;;;31.31;nan;-24680.97;5075179;28;20645;-65
2022/07/28 08:07:42;;;;;;;8.07;5.10;;;;;;;31.62;nan;-24689.13;5074948;28;20719;-63
2022/07/28 08:10:09;;;;;;;9.63;5.35;;;;;;;31.74;nan;-24692.50;5074973;28;20197;-65
2022/07/28 08:12:35;;;;;;;7.32;4.93;;;;;;;31.48;nan;-24685.44;5074720;28;20193;-64
2022/07/28 08:15:00;;;;;;;7.60;4.97;;;;;;;32.00;nan;-24699.56;5075080;28;20564;-63
2022/07/28 08:17:26;;;;;;;8.80;5.28;;;;;;;32.17;nan;-24703.94;5077019;28;20693;-64
2022/07/28 08:19:52;;;;;;;7.78;5.13;;;;;;;32.59;nan;-24715.19;5074982;28;20177;-62
2022/07/28 08:22:17;;;;;;;7.25;4.80;;;;;;;32.92;nan;-24724.00;5075062;28;20181;-63
2022/07/28 08:24:43;;;;;;;8.23;4.65;;;;;;;33.42;nan;-24737.41;5074824;28;20272;-66
2022/07/28 08:27:08;;;;;;;11.43;5.47;;;;;;;33.53;nan;-24740.53;5075217;28;20523;-66
2022/07/28 08:29:34;;;;;;;8.95;4.82;;;;;;;33.91;nan;-24750.69;5074914;28;20525;-63
2022/07/28 08:32:02;;;;;;;7.90;5.32;;;;;;;33.54;nan;-24740.66;5074616;28;20160;-63
2022/07/28 08:34:32;;;;;;;7.88;4.97;;;;;;;33.30;nan;-24734.31;5074807;28;20180;-64
2022/07/28 08:36:59;;;;;;;8.73;5.30;;;;;;;33.50;nan;-24739.72;5074282;28;20173;-63
2022/07/28 08:39:24;;;;;;;7.65;5.07;;;;;;;33.20;nan;-24731.72;5074680;28;20219;-63
2022/07/28 08:41:52;;;;;;;17.42;5.57;;;;;;;33.37;nan;-24736.19;5074838;28;20169;-64
2022/07/28 08:44:26;;;;;;;9.30;5.90;;;;;;;33.24;nan;-24732.81;5074117;28;20542;-60
2022/07/28 08:46:52;;;;;;;8.82;5.57;;;;;;;33.44;nan;-24738.09;5074033;28;20248;-60
2022/07/28 08:49:18;;;;;;;7.65;5.15;;;;;;;33.02;nan;-24726.84;5074415;28;20303;-63
2022/07/28 08:51:47;;;;;;;10.23;5.72;;;;;;;32.68;nan;-24717.63;5073920;28;20169;-63
2022/07/28 08:54:19;;;;;;;9.88;6.05;;;;;;;32.83;nan;-24721.69;5074096;28;20457;-63
2022/07/28 08:56:46;;;;;;;9.38;5.53;;;;;;;33.05;nan;-24727.66;5074297;28;20573;-61
2022/07/28 08:59:11;;;;;;;7.97;4.55;;;;;;;31.31;nan;-24680.97;5074233;28;20205;-61
2022/07/28 09:01:37;;;;;;;10.00;5.32;;;;;;;32.77;nan;-24720.22;5074654;28;20230;-64
2022/07/28 09:04:04;;;;;;;7.53;5.10;;;;;;;32.48;nan;-24712.34;5074008;28;20165;-64
2022/07/28 09:06:30;;;;;;;7.22;5.10;;;;;;;32.84;nan;-24722.09;5073336;28;20213;-62
2022/07/28 09:08:55;;;;;;;10.48;5.55;;;;;;;32.67;nan;-24717.50;5074100;28;20173;-65
2022/07/28 09:11:21;;;;;;;7.10;5.22;;;;;;;32.94;nan;-24724.53;5073812;28;20169;-64
2022/07/28 09:13:46;;;;;;;7.38;4.95;;;;;;;32.99;nan;-24725.91;5073937;28;20532;-62
2022/07/28 09:16:13;;;;;;;8.07;5.07;;;;;;;32.81;nan;-24721.28;5072361;28;20172;-64
2022/07/28 09:18:39;;;;;;;8.68;5.50;;;;;;;32.91;nan;-24723.88;5073149;28;20702;-64
2022/07/28 09:21:05;;;;;;;9.57;5.90;;;;;;;32.88;nan;-24723.19;5072037;28;20173;-62
2022/07/28 09:23:44;;;;;;;7.47;5.20;;;;;;;33.20;nan;-24731.72;5073146;28;20161;-63
2022/07/28 09:26:10;;;;;;;7.85;5.20;;;;;;;33.48;nan;-24739.19;5073072;28;20222;-62
2022/07/28 09:28:50;;;;;;;6.55;4.85;;;;;;;33.75;nan;-24746.22;5073379;28;20609;-62
2022/07/28 09:31:17;;;;;;;6.82;4.97;;;;;;;33.12;nan;-24729.44;5073295;28;20256;-61
2022/07/28 09:34:12;;;;;;;9.35;5.70;;;;;;;33.47;nan;-24738.91;5073145;28;20218;-64
2022/07/28 09:36:39;;;;;;;8.15;5.00;;;;;;;33.66;nan;-24744.06;5068522;28;20247;-61
2022/07/28 09:39:04;;;;;;;7.95;5.47;;;;;;;34.20;nan;-24758.25;5072520;28;20189;-64
2022/07/28 09:41:48;;;;;;;8.23;5.65;;;;;;;34.28;nan;-24760.56;5072885;28;20213;-63
2022/07/28 09:44:22;;;;;;;7.60;5.70;;;;;;;34.30;nan;-24760.97;5072772;28;20157;-62
2022/07/28 09:46:48;;;;;;;10.25;5.93;;;;;;;33.84;nan;-24748.78;5072797;28;20169;-61
2022/07/28 09:49:14;;;;;;;9.43;5.95;;;;;;;33.80;nan;-24747.72;5072742;28;20207;-61
2022/07/28 09:51:39;;;;;;;10.25;6.97;;;;;;;34.19;nan;-24758.00;5071569;28;20173;-64
2022/07/28 09:54:11;;;;;;;9.27;6.35;;;;;;;33.83;nan;-24748.38;5072707;28;20181;-61
2022/07/28 09:56:42;;;;;;;10.23;6.72;;;;;;;33.77;nan;-24746.91;5072884;28;20249;-63
2022/07/28 09:59:09;;;;;;;11.65;6.78;;;;;;;33.70;nan;-24745.00;5072685;28;20233;-63
2022/07/28 10:01:57;;;;;;;11.50;6.50;;;;;;;33.35;nan;-24735.53;5072893;28;20222;-64
2022/07/28 10:04:40;;;;;;;8.35;5.32;;;;;;;32.87;nan;-24722.78;5072440;28;20158;-64
2022/07/28 10:07:12;;;;;;;11.52;6.57;;;;;;;32.93;nan;-24724.41;5072822;28;20213;-63
2022/07/28 10:09:39;;;;;;;8.10;5.68;;;;;;;33.48;nan;-24739.19;5072939;28;20184;-63
2022/07/28 10:12:16;;;;;;;9.20;5.90;;;;;;;33.92;nan;-24750.81;5072958;28;20180;-64
2022/07/28 10:14:42;;;;;;;7.80;5.32;;;;;;;33.95;nan;-24751.78;5072477;28;20169;-63
2022/07/28 10:17:09;;;;;;;9.00;5.68;;;;;;;33.78;nan;-24747.16;5072194;28;20161;-64
2022/07/28 10:19:35;;;;;;;8.88;6.18;;;;;;;33.85;nan;-24749.06;5071881;28;20165;-62
2022/07/28 10:22:01;;;;;;;8.32;5.45;;;;;;;33.32;nan;-24734.84;5072569;28;20226;-64
2022/07/28 10:24:32;;;;;;;8.63;5.15;;;;;;;33.78;nan;-24747.16;5072772;28;20169;-63
2022/07/28 10:27:01;;;;;;;7.80;4.90;;;;;;;33.83;nan;-24748.38;5072900;28;20252;-62
2022/07/28 10:29:30;;;;;;;7.15;5.00;;;;;;;34.24;nan;-24759.47;5072122;28;20256;-62
2022/07/28 10:32:04;;;;;;;8.02;5.13;;;;;;;34.03;nan;-24753.94;5072612;28;20158;-63
2022/07/28 10:34:44;;;;;;;8.90;5.68;;;;;;;33.77;nan;-24746.91;5072574;28;20179;-62
2022/07/28 10:37:19;;;;;;;8.35;5.28;;;;;;;33.79;nan;-24747.44;5072247;28;20215;-63
2022/07/28 10:39:50;;;;;;;9.02;5.40;;;;;;;33.16;nan;-24730.50;5071822;28;20164;-63
2022/07/28 10:42:18;;;;;;;8.35;5.38;;;;;;;33.23;nan;-24732.41;5074512;28;20608;-64
2022/07/28 10:44:45;;;;;;;7.85;4.93;;;;;;;33.60;nan;-24742.28;5072172;28;20158;-62
2022/07/28 10:47:12;;;;;;;7.78;5.00;;;;;;;33.20;nan;-24731.72;5077083;28;20637;-63
2022/07/28 10:49:40;;;;;;;7.15;4.53;;;;;;;33.21;nan;-24731.88;5072072;28;20181;-63
2022/07/28 10:52:07;;;;;;;6.30;4.68;;;;;;;33.45;nan;-24738.22;5071942;28;20173;-64
2022/07/28 10:54:41;;;;;;;8.27;5.05;;;;;;;33.80;nan;-24747.56;5072011;28;20214;-64
2022/07/28 10:57:11;;;;;;;9.60;4.78;;;;;;;33.99;nan;-24752.72;5072205;28;20166;-66
2022/07/28 10:59:52;;;;;;;8.27;4.93;;;;;;;34.04;nan;-24754.19;5071699;28;20633;-65
2022/07/28 11:02:43;;;;;;;7.40;4.53;;;;;;;34.01;nan;-24753.25;5072090;28;20173;-63
2022/07/28 11:05:28;;;;;;;7.45;5.07;;;;;;;34.45;nan;-24765.16;5072521;28;21294;-63
2022/07/28 11:07:55;;;;;;;6.95;4.63;;;;;;;34.12;nan;-24756.38;5071091;28;20595;-65
2022/07/28 11:10:21;;;;;;;7.57;4.90;;;;;;;34.46;nan;-24765.28;5071912;28;20193;-64
2022/07/28 11:12:51;;;;;;;7.63;5.05;;;;;;;34.34;nan;-24762.19;5071579;28;20192;-65
2022/07/28 11:15:31;;;;;;;7.40;5.10;;;;;;;33.88;nan;-24749.88;5071771;28;20518;-65
2022/07/28 11:18:07;;;;;;;7.28;4.68;;;;;;;34.81;nan;-24774.75;5071778;28;20193;-63
2022/07/28 11:20:51;;;;;;;7.25;4.50;;;;;;;34.56;nan;-24768.13;5072122;28;20630;-66
2022/07/28 11:23:35;;;;;;;6.93;4.70;;;;;;;34.20;nan;-24758.25;5071666;28;20520;-65
2022/07/28 11:26:19;;;;;;;8.85;4.55;;;;;;;34.22;nan;-24758.94;5071798;28;20162;-63
2022/07/28 11:29:02;;;;;;;6.88;4.72;;;;;;;34.14;nan;-24756.91;5071667;28;20222;-63
2022/07/28 11:31:42;;;;;;;7.50;4.43;;;;;;;34.23;nan;-24759.22;5075239;28;20207;-64
2022/07/28 11:34:18;;;;;;;7.72;4.47;;;;;;;34.15;nan;-24757.19;5075907;28;20180;-64
2022/07/28 11:37:01;;;;;;;7.13;4.07;;;;;;;34.54;nan;-24767.47;5075951;28;20318;-64
2022/07/28 11:39:37;;;;;;;8.00;4.70;;;;;;;34.80;nan;-24774.34;5077294;28;20246;-66
2022/07/28 11:42:32;;;;;;;6.57;4.55;;;;;;;34.73;nan;-24772.47;5075250;28;20168;-64
2022/07/28 11:45:21;;;;;;;8.43;4.53;;;;;;;34.72;nan;-24772.19;5064886;28;20189;-65
2022/07/28 11:47:46;;;;;;;6.15;4.38;;;;;;;34.35;nan;-24762.47;5054943;28;20262;-64
2022/07/28 11:50:15;;;;;;;7.15;4.90;;;;;;;34.84;nan;-24775.56;5054897;28;20681;-62
2022/07/28 11:53:01;;;;;;;8.48;4.72;;;;;;;35.28;nan;-24787.16;5070844;28;20617;-64